createdAt,value
2022-08-14T00:03:56.327Z,17.80
2022-08-14T00:07:46.444Z,17.10
2022-08-14T00:11:31.334Z,15.90
2022-08-14T00:15:16.142Z,20.00
2022-08-14T00:19:06.410Z,16.60
2022-08-14T00:23:12.630Z,16.20
2022-08-14T00:27:05.613Z,17.30
2022-08-14T00:30:55.739Z,17.90
2022-08-14T00:34:49.219Z,16.00
2022-08-14T00:38:16.433Z,15.70
2022-08-14T00:42:05.531Z,16.60
2022-08-14T00:45:43.221Z,15.90
2022-08-14T00:49:30.403Z,15.90
2022-08-14T00:53:06.374Z,16.00
2022-08-14T00:56:19.369Z,17.30
2022-08-14T00:59:54.394Z,16.80
2022-08-14T01:03:10.526Z,15.80
2022-08-14T01:06:51.394Z,15.40
2022-08-14T01:10:45.022Z,14.10
2022-08-14T01:14:38.021Z,17.00
2022-08-14T01:18:28.282Z,14.20
2022-08-14T01:22:26.699Z,14.60
2022-08-14T01:25:55.956Z,15.50
2022-08-14T01:29:51.230Z,15.10
2022-08-14T01:32:43.916Z,18.90
2022-08-14T01:36:22.865Z,14.20
2022-08-14T01:40:12.630Z,13.10
2022-08-14T01:44:06.220Z,14.20
2022-08-14T01:48:03.642Z,16.10
2022-08-14T01:51:52.870Z,18.70
2022-08-14T01:55:36.847Z,20.10
2022-08-14T01:59:26.802Z,16.60
2022-08-14T02:02:22.877Z,17.10
2022-08-14T02:05:52.883Z,19.20
2022-08-14T02:09:42.264Z,18.50
2022-08-14T02:13:21.367Z,19.30
2022-08-14T02:17:11.493Z,19.60
2022-08-14T02:21:00.778Z,16.70
2022-08-14T02:24:49.888Z,14.50
2022-08-14T02:28:58.028Z,15.80
2022-08-14T02:32:48.962Z,15.20
2022-08-14T02:37:03.950Z,15.40
2022-08-14T02:40:47.291Z,15.70
2022-08-14T02:44:39.863Z,16.90
2022-08-14T02:49:02.063Z,16.70
2022-08-14T02:52:56.355Z,15.40
2022-08-14T02:57:15.562Z,17.50
2022-08-14T03:00:57.399Z,15.00
2022-08-14T03:04:47.121Z,18.10
2022-08-14T03:08:36.250Z,15.90
2022-08-14T03:12:31.402Z,15.10
2022-08-14T03:16:19.884Z,14.90
2022-08-14T03:20:15.763Z,15.20
2022-08-14T03:23:45.201Z,14.90
2022-08-14T03:26:44.291Z,15.00
2022-08-14T03:30:39.052Z,15.20
2022-08-14T03:34:47.755Z,14.40
2022-08-14T03:39:14.561Z,14.10
2022-08-14T03:42:31.052Z,13.90
2022-08-14T03:46:38.710Z,12.60
2022-08-14T03:50:44.621Z,12.20
2022-08-14T03:54:39.648Z,11.50
2022-08-14T03:58:36.477Z,12.20
2022-08-14T04:02:37.185Z,12.20
2022-08-14T04:06:28.322Z,11.30
2022-08-14T04:10:31.623Z,10.50
2022-08-14T04:14:21.382Z,10.20
2022-08-14T04:18:12.805Z,8.80
2022-08-14T04:22:03.544Z,9.20
2022-08-14T04:25:53.748Z,9.10
2022-08-14T04:29:44.943Z,9.10
2022-08-14T04:33:34.918Z,8.50
2022-08-14T04:37:27.504Z,9.60
2022-08-14T04:41:17.012Z,9.50
2022-08-14T04:45:05.954Z,9.50
2022-08-14T04:49:00.150Z,10.60
2022-08-14T04:52:53.937Z,10.50
2022-08-14T04:56:45.566Z,9.10
2022-08-14T05:00:35.383Z,8.10
2022-08-14T05:04:27.614Z,8.10
2022-08-14T05:08:32.251Z,7.10
2022-08-14T05:13:13.123Z,7.90
2022-08-14T05:16:35.720Z,8.20
2022-08-14T05:21:05.113Z,9.30
2022-08-14T05:24:34.349Z,7.30
2022-08-14T05:28:24.249Z,7.20
2022-08-14T05:32:13.693Z,7.20
2022-08-14T05:36:04.773Z,9.30
2022-08-14T05:39:55.001Z,8.00
2022-08-14T05:43:45.046Z,6.90
2022-08-14T05:47:38.944Z,7.20
2022-08-14T05:51:31.745Z,7.70
2022-08-14T05:55:23.279Z,6.80
2022-08-14T05:59:13.736Z,9.00
2022-08-14T06:03:06.931Z,8.20
2022-08-14T06:06:56.822Z,8.30
2022-08-14T06:10:47.313Z,8.80
2022-08-14T06:14:36.893Z,8.00
2022-08-14T06:18:26.360Z,8.00
2022-08-14T06:22:24.398Z,7.60
2022-08-14T06:26:15.425Z,7.20
2022-08-14T06:30:06.236Z,8.60
2022-08-14T06:35:11.156Z,8.80
2022-08-14T06:38:16.725Z,8.20
2022-08-14T06:42:07.037Z,7.60
2022-08-14T06:45:57.167Z,8.10
2022-08-14T06:49:55.991Z,7.90
2022-08-14T06:53:48.080Z,8.40
2022-08-14T06:57:38.218Z,6.50
2022-08-14T07:01:27.425Z,6.60
2022-08-14T07:05:21.130Z,6.70
2022-08-14T07:09:23.087Z,5.90
2022-08-14T07:13:13.099Z,6.30
2022-08-14T07:17:03.072Z,7.10
2022-08-14T07:20:53.350Z,6.70
2022-08-14T07:24:43.619Z,6.40
2022-08-14T07:28:32.887Z,7.20
2022-08-14T07:32:22.350Z,6.90
2022-08-14T07:36:27.564Z,7.50
2022-08-14T07:40:22.013Z,6.80
2022-08-14T07:44:28.911Z,6.40
2022-08-14T07:48:25.415Z,6.00
2022-08-14T07:52:22.234Z,7.10
2022-08-14T07:56:44.250Z,5.70
2022-08-14T08:00:31.430Z,6.00
2022-08-14T08:04:24.091Z,5.80
2022-08-14T08:08:27.415Z,5.50
2022-08-14T08:12:21.712Z,5.30
2022-08-14T08:16:13.358Z,6.20
2022-08-14T08:20:06.187Z,6.10
2022-08-14T08:23:58.673Z,5.70
2022-08-14T08:27:57.829Z,5.00
2022-08-14T08:31:52.208Z,5.40
2022-08-14T08:35:50.730Z,5.60
2022-08-14T08:40:01.799Z,5.60
2022-08-14T08:44:17.290Z,6.00
2022-08-14T08:48:20.852Z,5.70
2022-08-14T08:52:29.025Z,4.50
2022-08-14T08:56:39.549Z,4.90
2022-08-14T09:00:30.726Z,4.10
2022-08-14T09:04:23.196Z,5.80
2022-08-14T09:08:31.541Z,4.90
2022-08-14T09:12:22.063Z,4.00
2022-08-14T09:16:18.410Z,4.80
2022-08-14T09:20:11.370Z,6.20
2022-08-14T09:24:28.784Z,5.50
2022-08-14T09:28:13.186Z,4.70
2022-08-14T09:32:04.162Z,3.60
2022-08-14T09:36:14.118Z,4.40
2022-08-14T09:40:11.505Z,4.90
2022-08-14T09:44:20.813Z,4.30
2022-08-14T09:48:27.564Z,4.00
2022-08-14T09:52:32.806Z,3.60
2022-08-14T09:56:30.243Z,5.50
2022-08-14T10:00:30.106Z,5.20
2022-08-14T10:04:37.721Z,4.40
2022-08-14T10:08:35.396Z,5.60
2022-08-14T10:12:34.044Z,4.10
2022-08-14T10:16:27.311Z,5.00
2022-08-14T10:20:40.439Z,5.20
2022-08-14T10:24:44.592Z,3.70
2022-08-14T10:28:51.574Z,4.90
2022-08-14T10:32:51.354Z,4.80
2022-08-14T10:36:44.828Z,6.60
2022-08-14T10:40:44.785Z,5.30
2022-08-14T10:44:45.304Z,6.10
2022-08-14T10:48:44.930Z,8.10
2022-08-14T10:52:37.946Z,9.20
2022-08-14T10:56:35.319Z,6.60
2022-08-14T11:00:35.701Z,9.10
2022-08-14T11:04:25.929Z,6.00
2022-08-14T11:08:16.534Z,9.00
2022-08-14T11:12:34.550Z,7.00
2022-08-14T11:16:15.917Z,9.90
2022-08-14T11:20:06.373Z,9.50
2022-08-14T11:24:50.993Z,9.00
2022-08-14T11:28:19.633Z,7.70
2022-08-14T11:32:28.755Z,8.40
2022-08-14T11:36:19.174Z,10.40
2022-08-14T11:40:08.680Z,10.00
2022-08-14T11:43:58.891Z,7.50
2022-08-14T11:48:11.151Z,9.40
2022-08-14T11:51:59.022Z,10.40
2022-08-14T11:55:50.929Z,7.30
2022-08-14T11:59:44.519Z,11.20
2022-08-14T12:03:46.514Z,6.90
2022-08-14T12:07:53.373Z,6.40
2022-08-14T12:11:47.014Z,9.00
2022-08-14T12:15:51.393Z,10.00
2022-08-14T12:19:41.025Z,6.40
2022-08-14T12:23:35.631Z,9.70
2022-08-14T12:27:25.766Z,11.00
2022-08-14T12:31:36.334Z,10.40
2022-08-14T12:35:34.530Z,10.90
2022-08-14T12:39:39.878Z,8.60
2022-08-14T12:43:35.566Z,11.20
2022-08-14T12:47:25.735Z,11.60
2022-08-14T12:51:27.080Z,11.10
2022-08-14T12:55:17.615Z,12.30
2022-08-14T12:59:10.890Z,11.20
2022-08-14T13:03:04.202Z,12.80
2022-08-14T13:06:53.735Z,11.70
2022-08-14T13:10:52.018Z,12.20
2022-08-14T13:14:48.123Z,10.90
2022-08-14T13:18:38.668Z,10.60
2022-08-14T13:22:33.631Z,11.10
2022-08-14T13:26:28.382Z,10.30
2022-08-14T13:30:21.304Z,8.90
2022-08-14T13:34:13.839Z,9.60
2022-08-14T13:38:04.282Z,9.10
2022-08-14T13:41:55.995Z,9.20
2022-08-14T13:46:00.925Z,8.30
2022-08-14T13:49:57.455Z,10.10
2022-08-14T13:54:06.950Z,7.90
2022-08-14T13:58:04.606Z,8.50
2022-08-14T14:01:55.419Z,9.60
2022-08-14T14:05:53.207Z,9.80
2022-08-14T14:09:52.998Z,9.40
2022-08-14T14:13:45.251Z,10.10
2022-08-14T14:17:35.370Z,9.30
2022-08-14T14:21:28.496Z,9.30
2022-08-14T14:25:19.449Z,9.00
2022-08-14T14:29:11.413Z,10.10
2022-08-14T14:33:05.146Z,8.60
2022-08-14T14:37:00.762Z,9.50
2022-08-14T14:41:00.632Z,9.10
2022-08-14T14:44:51.699Z,7.80
2022-08-14T14:48:54.777Z,9.30
2022-08-14T14:52:47.009Z,8.80
2022-08-14T14:56:51.945Z,8.00
2022-08-14T15:00:42.951Z,6.90
2022-08-14T15:04:43.749Z,8.00
2022-08-14T15:08:55.911Z,9.60
2022-08-14T15:12:56.653Z,8.20
2022-08-14T15:16:49.155Z,9.40
2022-08-14T15:20:40.561Z,9.30
2022-08-14T15:24:30.723Z,6.80
2022-08-14T15:28:22.091Z,8.70
2022-08-14T15:32:12.807Z,8.90
2022-08-14T15:36:02.683Z,9.00
2022-08-14T15:39:54.245Z,9.00
2022-08-14T15:43:43.599Z,8.60
2022-08-14T15:47:41.501Z,9.60
2022-08-14T15:51:32.044Z,7.80
2022-08-14T15:55:21.667Z,8.20
2022-08-14T15:59:13.261Z,7.70
2022-08-14T16:03:09.631Z,8.20
2022-08-14T16:07:01.108Z,7.90
2022-08-14T16:10:51.521Z,8.70
2022-08-14T16:14:45.835Z,9.20
2022-08-14T16:22:57.618Z,9.20
2022-08-14T16:26:51.617Z,9.80
2022-08-14T16:30:40.798Z,9.20
2022-08-14T16:34:47.157Z,9.80
2022-08-14T16:38:46.299Z,10.40
2022-08-14T16:42:39.044Z,9.60
2022-08-14T16:46:46.892Z,11.20
2022-08-14T16:50:43.465Z,9.90
2022-08-14T16:54:45.033Z,10.50
2022-08-14T16:58:35.186Z,10.60
2022-08-14T17:02:28.321Z,9.60
2022-08-14T17:06:30.611Z,10.50
2022-08-14T17:10:28.034Z,11.70
2022-08-14T17:14:22.142Z,10.90
2022-08-14T17:18:30.954Z,10.50
2022-08-14T17:22:26.935Z,10.30
2022-08-14T17:26:16.968Z,13.70
2022-08-14T17:29:57.687Z,10.90
2022-08-14T17:33:53.167Z,12.80
2022-08-14T17:37:45.217Z,11.20
2022-08-14T17:41:36.214Z,11.20
2022-08-14T17:45:06.805Z,14.70
2022-08-14T17:49:14.168Z,23.60
2022-08-14T17:53:09.317Z,17.30
2022-08-14T17:56:58.971Z,15.00
2022-08-14T18:00:39.873Z,19.50
2022-08-14T18:04:28.626Z,12.00
2022-08-14T18:08:33.301Z,18.30
2022-08-14T18:11:57.481Z,13.00
2022-08-14T18:15:14.546Z,24.80
2022-08-14T18:18:59.284Z,14.80
2022-08-14T18:22:52.391Z,17.40
2022-08-14T18:26:41.508Z,13.70
2022-08-14T18:30:33.346Z,26.90
2022-08-14T18:34:30.190Z,13.80
2022-08-14T18:37:55.781Z,16.50
2022-08-14T18:41:37.203Z,27.00
2022-08-14T18:45:31.906Z,31.60
2022-08-14T18:49:23.643Z,16.00
2022-08-14T18:53:16.295Z,31.30
2022-08-14T18:57:05.661Z,16.10
2022-08-14T19:01:10.780Z,13.50
2022-08-14T19:04:54.770Z,12.90
2022-08-14T19:08:59.534Z,13.70
2022-08-14T19:12:49.471Z,14.20
2022-08-14T19:16:48.405Z,18.00
2022-08-14T19:20:45.470Z,14.70
2022-08-14T19:24:50.193Z,14.50
2022-08-14T19:28:27.430Z,13.90
2022-08-14T19:32:26.149Z,14.40
2022-08-14T19:36:28.915Z,14.70
2022-08-14T19:40:31.731Z,15.40
2022-08-14T19:44:14.330Z,14.10
2022-08-14T19:48:15.704Z,13.90
2022-08-14T19:52:17.489Z,13.90
2022-08-14T19:56:29.010Z,16.10
2022-08-14T20:00:28.716Z,15.90
2022-08-14T20:04:45.805Z,14.90
2022-08-14T20:11:00.094Z,18.60
2022-08-14T20:12:57.402Z,18.20
2022-08-14T20:16:51.474Z,20.10
2022-08-14T20:20:41.322Z,19.50
2022-08-14T20:24:37.607Z,21.30
2022-08-14T20:28:35.406Z,20.90
2022-08-14T20:32:17.393Z,22.20
2022-08-14T20:36:16.082Z,26.00
2022-08-14T20:39:40.193Z,93.70
2022-08-14T20:43:35.494Z,49.20
2022-08-14T20:47:18.111Z,33.50
2022-08-14T20:51:11.377Z,21.30
2022-08-14T20:55:03.213Z,24.00
2022-08-14T20:58:52.504Z,21.70
2022-08-14T21:02:50.465Z,21.00
2022-08-14T21:07:23.940Z,19.00
2022-08-14T21:10:55.040Z,20.10
2022-08-14T21:14:51.952Z,17.40
2022-08-14T21:18:31.688Z,18.10
2022-08-14T21:22:11.748Z,17.20
2022-08-14T21:25:59.756Z,18.20
2022-08-14T21:29:56.014Z,17.70
2022-08-14T21:33:35.698Z,17.30
2022-08-14T21:37:26.014Z,15.80
2022-08-14T21:41:42.828Z,17.50
2022-08-14T21:45:29.180Z,17.10
2022-08-14T21:49:24.679Z,16.90
2022-08-14T21:53:03.501Z,16.00
2022-08-14T21:56:57.748Z,16.70
2022-08-14T21:59:52.249Z,16.30
2022-08-14T22:03:24.400Z,15.40
2022-08-14T22:07:12.292Z,15.80
2022-08-14T22:10:54.416Z,16.60
2022-08-14T22:14:44.223Z,17.60
2022-08-14T22:18:33.579Z,17.20
2022-08-14T22:22:11.772Z,17.80
2022-08-14T22:25:59.600Z,18.10
2022-08-14T22:29:54.778Z,18.10
2022-08-14T22:33:40.255Z,16.40
2022-08-14T22:37:31.844Z,17.40
2022-08-14T22:41:28.349Z,18.80
2022-08-14T22:45:20.632Z,19.80
2022-08-14T22:49:01.099Z,20.40
2022-08-14T22:53:06.708Z,19.70
2022-08-14T22:56:55.869Z,20.20
2022-08-14T23:00:33.606Z,19.30
2022-08-14T23:04:34.996Z,20.40
2022-08-14T23:08:59.207Z,19.20
2022-08-14T23:12:29.960Z,18.90
2022-08-14T23:16:19.995Z,18.80
2022-08-14T23:20:09.557Z,18.70
2022-08-14T23:24:07.125Z,18.20
2022-08-14T23:28:03.095Z,18.30
2022-08-14T23:31:55.948Z,19.90
2022-08-14T23:35:59.158Z,20.10
2022-08-14T23:39:49.226Z,19.00
2022-08-14T23:43:44.855Z,18.30
2022-08-14T23:47:27.624Z,21.40
2022-08-14T23:51:15.556Z,21.20
2022-08-14T23:55:05.541Z,20.70
2022-08-14T23:59:00.437Z,21.10
